sensor_id;sensor_type;location;lat;lon;timestamp;pressure;altitude;pressure_sealevel;temperature;humidity
43820;BME280;67762;52.476;6.046;2023-04-22T00:01:49;100909.91;;;8.28;89.98
43820;BME280;67762;52.476;6.046;2023-04-22T00:04:15;100910.03;;;8.26;89.24
43820;BME280;67762;52.476;6.046;2023-04-22T00:06:41;100907.53;;;8.24;89.59
43820;BME280;67762;52.476;6.046;2023-04-22T00:09:06;100902.91;;;8.27;89.77
43820;BME280;67762;52.476;6.046;2023-04-22T00:11:32;100897.88;;;8.23;90.42
43820;BME280;67762;52.476;6.046;2023-04-22T00:13:57;100893.41;;;8.24;89.54
43820;BME280;67762;52.476;6.046;2023-04-22T00:16:23;100896.75;;;8.26;90.36
43820;BME280;67762;52.476;6.046;2023-04-22T00:18:50;100890.50;;;8.27;90.74
43820;BME280;67762;52.476;6.046;2023-04-22T00:21:16;100894.81;;;8.28;90.47
43820;BME280;67762;52.476;6.046;2023-04-22T00:23:41;100889.06;;;8.23;90.14
43820;BME280;67762;52.476;6.046;2023-04-22T00:26:10;100882.69;;;8.16;90.05
43820;BME280;67762;52.476;6.046;2023-04-22T00:28:38;100884.13;;;8.10;90.36
43820;BME280;67762;52.476;6.046;2023-04-22T00:31:04;100886.34;;;8.05;90.66
43820;BME280;67762;52.476;6.046;2023-04-22T00:33:30;100879.66;;;8.01;91.09
43820;BME280;67762;52.476;6.046;2023-04-22T00:35:56;100880.63;;;8.00;91.28
43820;BME280;67762;52.476;6.046;2023-04-22T00:38:21;100881.63;;;7.99;90.86
43820;BME280;67762;52.476;6.046;2023-04-22T00:40:47;100872.81;;;7.99;91.17
43820;BME280;67762;52.476;6.046;2023-04-22T00:43:15;100874.94;;;7.95;90.74
43820;BME280;67762;52.476;6.046;2023-04-22T00:45:41;100867.53;;;7.89;90.81
43820;BME280;67762;52.476;6.046;2023-04-22T00:48:08;100870.19;;;7.89;90.83
43820;BME280;67762;52.476;6.046;2023-04-22T00:50:33;100868.53;;;7.88;91.77
43820;BME280;67762;52.476;6.046;2023-04-22T00:52:59;100863.53;;;7.85;91.55
43820;BME280;67762;52.476;6.046;2023-04-22T00:55:25;100881.41;;;7.83;91.84
43820;BME280;67762;52.476;6.046;2023-04-22T00:57:53;100874.44;;;7.82;91.43
43820;BME280;67762;52.476;6.046;2023-04-22T01:00:19;100870.09;;;7.81;91.03
43820;BME280;67762;52.476;6.046;2023-04-22T01:02:51;100874.03;;;7.77;91.83
43820;BME280;67762;52.476;6.046;2023-04-22T01:05:17;100878.63;;;7.75;91.05
43820;BME280;67762;52.476;6.046;2023-04-22T01:07:42;100875.28;;;7.73;91.16
43820;BME280;67762;52.476;6.046;2023-04-22T01:10:08;100869.59;;;7.68;92.03
43820;BME280;67762;52.476;6.046;2023-04-22T01:12:33;100880.88;;;7.70;92.11
43820;BME280;67762;52.476;6.046;2023-04-22T01:14:59;100872.38;;;7.66;91.29
43820;BME280;67762;52.476;6.046;2023-04-22T01:17:26;100872.53;;;7.65;92.48
43820;BME280;67762;52.476;6.046;2023-04-22T01:19:52;100877.84;;;7.65;91.88
43820;BME280;67762;52.476;6.046;2023-04-22T01:22:20;100868.34;;;7.62;91.89
43820;BME280;67762;52.476;6.046;2023-04-22T01:24:46;100866.94;;;7.58;91.62
43820;BME280;67762;52.476;6.046;2023-04-22T01:27:13;100863.31;;;7.59;92.05
43820;BME280;67762;52.476;6.046;2023-04-22T01:29:38;100860.78;;;7.58;92.18
43820;BME280;67762;52.476;6.046;2023-04-22T01:32:05;100870.72;;;7.56;92.42
43820;BME280;67762;52.476;6.046;2023-04-22T01:34:31;100859.53;;;7.52;92.06
43820;BME280;67762;52.476;6.046;2023-04-22T01:36:56;100858.84;;;7.50;92.38
43820;BME280;67762;52.476;6.046;2023-04-22T01:39:22;100848.41;;;7.49;91.71
43820;BME280;67762;52.476;6.046;2023-04-22T01:41:48;100850.22;;;7.48;92.32
43820;BME280;67762;52.476;6.046;2023-04-22T01:44:14;100855.53;;;7.48;92.43
43820;BME280;67762;52.476;6.046;2023-04-22T01:46:40;100855.81;;;7.45;92.90
43820;BME280;67762;52.476;6.046;2023-04-22T01:49:06;100845.34;;;7.44;92.16
43820;BME280;67762;52.476;6.046;2023-04-22T01:51:31;100849.66;;;7.45;92.30
43820;BME280;67762;52.476;6.046;2023-04-22T01:53:57;100850.50;;;7.45;93.17
43820;BME280;67762;52.476;6.046;2023-04-22T01:56:23;100852.03;;;7.48;93.08
43820;BME280;67762;52.476;6.046;2023-04-22T01:58:49;100851.75;;;7.51;92.09
43820;BME280;67762;52.476;6.046;2023-04-22T02:01:14;100856.47;;;7.57;93.22
43820;BME280;67762;52.476;6.046;2023-04-22T02:03:40;100851.16;;;7.57;92.69
43820;BME280;67762;52.476;6.046;2023-04-22T02:06:06;100846.69;;;7.57;92.78
43820;BME280;67762;52.476;6.046;2023-04-22T02:08:32;100853.13;;;7.55;92.73
43820;BME280;67762;52.476;6.046;2023-04-22T02:10:58;100846.16;;;7.54;92.66
43820;BME280;67762;52.476;6.046;2023-04-22T02:13:25;100847.13;;;7.53;92.34
43820;BME280;67762;52.476;6.046;2023-04-22T02:15:51;100846.28;;;7.52;93.49
43820;BME280;67762;52.476;6.046;2023-04-22T02:18:17;100843.63;;;7.52;92.80
43820;BME280;67762;52.476;6.046;2023-04-22T02:20:43;100840.00;;;7.53;92.75
43820;BME280;67762;52.476;6.046;2023-04-22T02:23:10;100837.34;;;7.53;92.91
43820;BME280;67762;52.476;6.046;2023-04-22T02:25:37;100841.81;;;7.53;93.05
43820;BME280;67762;52.476;6.046;2023-04-22T02:28:03;100837.78;;;7.49;93.89
43820;BME280;67762;52.476;6.046;2023-04-22T02:30:29;100837.78;;;7.49;93.36
43820;BME280;67762;52.476;6.046;2023-04-22T02:32:54;100832.47;;;7.49;93.20
43820;BME280;67762;52.476;6.046;2023-04-22T02:35:20;100830.78;;;7.48;93.59
43820;BME280;67762;52.476;6.046;2023-04-22T02:37:49;100837.91;;;7.47;93.73
43820;BME280;67762;52.476;6.046;2023-04-22T02:40:15;100835.97;;;7.49;94.03
43820;BME280;67762;52.476;6.046;2023-04-22T02:42:40;100821.97;;;7.47;93.68
43820;BME280;67762;52.476;6.046;2023-04-22T02:45:06;100831.91;;;7.45;93.92
43820;BME280;67762;52.476;6.046;2023-04-22T02:47:32;100832.88;;;7.44;92.99
43820;BME280;67762;52.476;6.046;2023-04-22T02:49:58;100822.25;;;7.44;93.75
43820;BME280;67762;52.476;6.046;2023-04-22T02:52:23;100818.63;;;7.45;94.00
43820;BME280;67762;52.476;6.046;2023-04-22T02:54:49;100809.84;;;7.45;93.29
43820;BME280;67762;52.476;6.046;2023-04-22T02:57:15;100814.59;;;7.41;94.20
43820;BME280;67762;52.476;6.046;2023-04-22T02:59:40;100816.72;;;7.38;94.08
43820;BME280;67762;52.476;6.046;2023-04-22T03:02:06;100814.34;;;7.35;94.14
43820;BME280;67762;52.476;6.046;2023-04-22T03:04:45;100805.97;;;7.30;93.45
43820;BME280;67762;52.476;6.046;2023-04-22T03:07:11;100810.72;;;7.26;94.00
43820;BME280;67762;52.476;6.046;2023-04-22T03:09:37;100807.38;;;7.24;93.66
43820;BME280;67762;52.476;6.046;2023-04-22T03:12:03;100806.84;;;7.21;93.65
43820;BME280;67762;52.476;6.046;2023-04-22T03:14:29;100810.59;;;7.18;93.16
43820;BME280;67762;52.476;6.046;2023-04-22T03:16:55;100812.69;;;7.15;93.48
43820;BME280;67762;52.476;6.046;2023-04-22T03:19:20;100810.91;;;7.15;93.54
43820;BME280;67762;52.476;6.046;2023-04-22T03:21:46;100805.03;;;7.12;94.26
43820;BME280;67762;52.476;6.046;2023-04-22T03:24:12;100802.38;;;7.12;93.38
43820;BME280;67762;52.476;6.046;2023-04-22T03:26:43;100807.00;;;7.10;94.62
43820;BME280;67762;52.476;6.046;2023-04-22T03:29:09;100796.94;;;7.13;94.19
43820;BME280;67762;52.476;6.046;2023-04-22T03:31:34;100801.13;;;7.16;93.80
43820;BME280;67762;52.476;6.046;2023-04-22T03:34:02;100797.91;;;7.22;93.72
43820;BME280;67762;52.476;6.046;2023-04-22T03:36:29;100788.94;;;7.23;94.43
43820;BME280;67762;52.476;6.046;2023-04-22T03:38:55;100788.94;;;7.23;93.92
43820;BME280;67762;52.476;6.046;2023-04-22T03:41:23;100781.97;;;7.22;94.42
43820;BME280;67762;52.476;6.046;2023-04-22T03:43:51;100781.13;;;7.21;94.10
43820;BME280;67762;52.476;6.046;2023-04-22T03:46:17;100782.94;;;7.21;94.65
43820;BME280;67762;52.476;6.046;2023-04-22T03:48:50;100773.19;;;7.21;94.11
43820;BME280;67762;52.476;6.046;2023-04-22T03:51:24;100767.88;;;7.21;94.01
43820;BME280;67762;52.476;6.046;2023-04-22T03:53:50;100765.22;;;7.21;94.71
43820;BME280;67762;52.476;6.046;2023-04-22T03:56:19;100764.22;;;7.22;94.23
43820;BME280;67762;52.476;6.046;2023-04-22T03:58:45;100756.25;;;7.22;94.79
43820;BME280;67762;52.476;6.046;2023-04-22T04:01:11;100759.75;;;7.23;95.23
43820;BME280;67762;52.476;6.046;2023-04-22T04:03:38;100754.16;;;7.26;94.14
43820;BME280;67762;52.476;6.046;2023-04-22T04:06:05;100747.31;;;7.23;95.28
43820;BME280;67762;52.476;6.046;2023-04-22T04:08:31;100743.69;;;7.24;94.14
43820;BME280;67762;52.476;6.046;2023-04-22T04:10:58;100746.34;;;7.24;94.32
43820;BME280;67762;52.476;6.046;2023-04-22T04:13:23;100749.81;;;7.25;95.28
43820;BME280;67762;52.476;6.046;2023-04-22T04:16:10;100750.66;;;7.25;94.34
43820;BME280;67762;52.476;6.046;2023-04-22T04:18:38;100745.22;;;7.27;94.68
43820;BME280;67762;52.476;6.046;2023-04-22T04:21:04;100747.72;;;7.28;94.82
43820;BME280;67762;52.476;6.046;2023-04-22T04:23:33;100747.44;;;7.31;95.06
43820;BME280;67762;52.476;6.046;2023-04-22T04:25:59;100751.78;;;7.32;95.40
43820;BME280;67762;52.476;6.046;2023-04-22T04:28:30;100754.28;;;7.34;95.30
43820;BME280;67762;52.476;6.046;2023-04-22T04:30:58;100748.66;;;7.37;95.48
43820;BME280;67762;52.476;6.046;2023-04-22T04:33:24;100754.53;;;7.40;95.07
43820;BME280;67762;52.476;6.046;2023-04-22T04:35:51;100757.59;;;7.45;95.64
43820;BME280;67762;52.476;6.046;2023-04-22T04:38:20;100752.81;;;7.49;95.28
43820;BME280;67762;52.476;6.046;2023-04-22T04:40:47;100748.03;;;7.52;95.89
43820;BME280;67762;52.476;6.046;2023-04-22T04:43:21;100748.75;;;7.54;94.98
43820;BME280;67762;52.476;6.046;2023-04-22T04:45:55;100752.63;;;7.60;95.86
43820;BME280;67762;52.476;6.046;2023-04-22T04:48:29;100751.34;;;7.64;95.29
43820;BME280;67762;52.476;6.046;2023-04-22T04:51:02;100755.53;;;7.66;95.97
43820;BME280;67762;52.476;6.046;2023-04-22T04:53:31;100746.13;;;7.72;95.26
43820;BME280;67762;52.476;6.046;2023-04-22T04:55:57;100749.34;;;7.76;95.34
43820;BME280;67762;52.476;6.046;2023-04-22T04:58:25;100749.88;;;7.79;95.45
43820;BME280;67762;52.476;6.046;2023-04-22T05:01:05;100750.44;;;7.83;96.17
43820;BME280;67762;52.476;6.046;2023-04-22T05:03:31;100746.47;;;7.87;95.55
43820;BME280;67762;52.476;6.046;2023-04-22T05:05:57;100749.69;;;7.90;95.88
43820;BME280;67762;52.476;6.046;2023-04-22T05:08:23;100748.69;;;7.91;95.78
43820;BME280;67762;52.476;6.046;2023-04-22T05:10:51;100753.69;;;7.94;95.44
43820;BME280;67762;52.476;6.046;2023-04-22T05:13:17;100753.41;;;7.97;95.85
43820;BME280;67762;52.476;6.046;2023-04-22T05:15:45;100752.25;;;8.00;95.61
43820;BME280;67762;52.476;6.046;2023-04-22T05:18:10;100753.94;;;8.01;95.41
43820;BME280;67762;52.476;6.046;2023-04-22T05:20:36;100753.66;;;8.04;95.80
43820;BME280;67762;52.476;6.046;2023-04-22T05:23:02;100747.19;;;8.06;96.18
43820;BME280;67762;52.476;6.046;2023-04-22T05:25:28;100753.91;;;8.10;95.77
43820;BME280;67762;52.476;6.046;2023-04-22T05:28:00;100750.09;;;8.13;96.24
43820;BME280;67762;52.476;6.046;2023-04-22T05:30:32;100739.97;;;8.16;95.70
43820;BME280;67762;52.476;6.046;2023-04-22T05:32:57;100744.03;;;8.20;95.95
43820;BME280;67762;52.476;6.046;2023-04-22T05:35:23;100752.66;;;8.22;96.01
43820;BME280;67762;52.476;6.046;2023-04-22T05:37:49;100746.94;;;8.27;95.97
43820;BME280;67762;52.476;6.046;2023-04-22T05:40:14;100750.13;;;8.31;96.22
43820;BME280;67762;52.476;6.046;2023-04-22T05:42:40;100747.16;;;8.34;95.98
43820;BME280;67762;52.476;6.046;2023-04-22T05:45:06;100744.22;;;8.37;95.89
43820;BME280;67762;52.476;6.046;2023-04-22T05:47:32;100740.78;;;8.44;96.17
43820;BME280;67762;52.476;6.046;2023-04-22T05:49:58;100743.84;;;8.49;96.22
43820;BME280;67762;52.476;6.046;2023-04-22T05:52:34;100746.03;;;8.54;96.26
43820;BME280;67762;52.476;6.046;2023-04-22T05:55:06;100755.22;;;8.59;95.75
43820;BME280;67762;52.476;6.046;2023-04-22T05:57:32;100753.78;;;8.65;95.70
43820;BME280;67762;52.476;6.046;2023-04-22T05:59:59;100757.47;;;8.72;95.62
43820;BME280;67762;52.476;6.046;2023-04-22T06:02:25;100746.94;;;8.80;95.78
43820;BME280;67762;52.476;6.046;2023-04-22T06:04:51;100751.47;;;8.88;95.77
43820;BME280;67762;52.476;6.046;2023-04-22T06:07:16;100747.19;;;8.95;95.96
43820;BME280;67762;52.476;6.046;2023-04-22T06:09:42;100753.56;;;9.02;95.79
43820;BME280;67762;52.476;6.046;2023-04-22T06:12:09;100748.44;;;9.08;95.98
43820;BME280;67762;52.476;6.046;2023-04-22T06:14:35;100747.97;;;9.13;95.85
43820;BME280;67762;52.476;6.046;2023-04-22T06:17:00;100742.19;;;9.17;96.06
43820;BME280;67762;52.476;6.046;2023-04-22T06:19:26;100747.00;;;9.22;96.41
43820;BME280;67762;52.476;6.046;2023-04-22T06:21:52;100746.03;;;9.23;96.12
43820;BME280;67762;52.476;6.046;2023-04-22T06:24:18;100749.22;;;9.26;96.08
43820;BME280;67762;52.476;6.046;2023-04-22T06:26:43;100742.88;;;9.27;95.94
43820;BME280;67762;52.476;6.046;2023-04-22T06:29:09;100740.75;;;9.31;96.06
43820;BME280;67762;52.476;6.046;2023-04-22T06:31:37;100739.16;;;9.38;96.07
43820;BME280;67762;52.476;6.046;2023-04-22T06:34:03;100737.47;;;9.37;96.03
43820;BME280;67762;52.476;6.046;2023-04-22T06:36:29;100735.47;;;9.39;96.08
43820;BME280;67762;52.476;6.046;2023-04-22T06:38:59;100736.53;;;9.46;95.83
43820;BME280;67762;52.476;6.046;2023-04-22T06:41:40;100736.38;;;9.56;95.87
43820;BME280;67762;52.476;6.046;2023-04-22T06:44:29;100735.25;;;9.66;96.33
43820;BME280;67762;52.476;6.046;2023-04-22T06:47:14;100731.97;;;9.80;95.88
43820;BME280;67762;52.476;6.046;2023-04-22T06:49:46;100738.88;;;9.91;95.93
43820;BME280;67762;52.476;6.046;2023-04-22T06:52:32;100737.88;;;10.00;96.38
43820;BME280;67762;52.476;6.046;2023-04-22T06:54:57;100731.41;;;10.11;95.84
43820;BME280;67762;52.476;6.046;2023-04-22T06:57:23;100728.44;;;10.22;96.06
43820;BME280;67762;52.476;6.046;2023-04-22T06:59:49;100731.63;;;10.33;96.34
43820;BME280;67762;52.476;6.046;2023-04-22T07:02:15;100723.16;;;10.38;96.56
43820;BME280;67762;52.476;6.046;2023-04-22T07:04:42;100730.16;;;10.47;96.57
43820;BME280;67762;52.476;6.046;2023-04-22T07:07:08;100725.66;;;10.55;96.68
43820;BME280;67762;52.476;6.046;2023-04-22T07:09:34;100722.97;;;10.64;96.80
43820;BME280;67762;52.476;6.046;2023-04-22T07:12:01;100723.66;;;10.74;96.18
43820;BME280;67762;52.476;6.046;2023-04-22T07:14:29;100733.66;;;10.88;96.60
43820;BME280;67762;52.476;6.046;2023-04-22T07:16:54;100727.28;;;10.97;95.91
43820;BME280;67762;52.476;6.046;2023-04-22T07:19:20;100726.97;;;11.00;96.98
43820;BME280;67762;52.476;6.046;2023-04-22T07:21:46;100725.63;;;11.12;96.13
43820;BME280;67762;52.476;6.046;2023-04-22T07:24:12;100726.75;;;11.26;96.89
43820;BME280;67762;52.476;6.046;2023-04-22T07:26:40;100723.53;;;11.46;96.83
43820;BME280;67762;52.476;6.046;2023-04-22T07:29:06;100721.63;;;11.63;96.53
43820;BME280;67762;52.476;6.046;2023-04-22T07:31:34;100717.75;;;11.73;96.40
43820;BME280;67762;52.476;6.046;2023-04-22T07:34:00;100719.81;;;11.94;95.96
43820;BME280;67762;52.476;6.046;2023-04-22T07:36:26;100727.72;;;12.18;96.16
43820;BME280;67762;52.476;6.046;2023-04-22T07:38:52;100717.53;;;12.37;96.48
43820;BME280;67762;52.476;6.046;2023-04-22T07:41:17;100711.97;;;12.46;96.50
43820;BME280;67762;52.476;6.046;2023-04-22T07:43:43;100699.81;;;12.58;96.31
43820;BME280;67762;52.476;6.046;2023-04-22T07:46:08;100707.88;;;12.73;96.39
43820;BME280;67762;52.476;6.046;2023-04-22T07:48:34;100703.66;;;12.78;95.81
43820;BME280;67762;52.476;6.046;2023-04-22T07:51:01;100705.72;;;12.91;95.08
43820;BME280;67762;52.476;6.046;2023-04-22T07:53:26;100709.31;;;12.98;94.61
43820;BME280;67762;52.476;6.046;2023-04-22T07:55:52;100705.88;;;13.12;94.13
43820;BME280;67762;52.476;6.046;2023-04-22T07:58:20;100713.53;;;13.15;93.55
43820;BME280;67762;52.476;6.046;2023-04-22T08:00:45;100711.97;;;13.21;92.29
43820;BME280;67762;52.476;6.046;2023-04-22T08:03:12;100711.03;;;13.28;91.91
43820;BME280;67762;52.476;6.046;2023-04-22T08:05:38;100710.78;;;13.38;91.48
43820;BME280;67762;52.476;6.046;2023-04-22T08:08:04;100709.00;;;13.45;90.44
43820;BME280;67762;52.476;6.046;2023-04-22T08:10:30;100715.94;;;13.54;90.14
43820;BME280;67762;52.476;6.046;2023-04-22T08:12:56;100716.47;;;13.79;89.45
43820;BME280;67762;52.476;6.046;2023-04-22T08:15:21;100703.44;;;14.12;89.41
43820;BME280;67762;52.476;6.046;2023-04-22T08:17:47;100695.81;;;14.51;90.27
43820;BME280;67762;52.476;6.046;2023-04-22T08:20:13;100697.00;;;14.97;90.32
43820;BME280;67762;52.476;6.046;2023-04-22T08:22:40;100694.19;;;15.40;90.45
43820;BME280;67762;52.476;6.046;2023-04-22T08:25:07;100688.97;;;15.66;90.36
43820;BME280;67762;52.476;6.046;2023-04-22T08:27:34;100696.31;;;15.85;89.06
43820;BME280;67762;52.476;6.046;2023-04-22T08:30:00;100697.50;;;15.76;85.29
43820;BME280;67762;52.476;6.046;2023-04-22T08:32:26;100698.56;;;15.82;83.96
43820;BME280;67762;52.476;6.046;2023-04-22T08:34:52;100693.69;;;16.05;83.84
43820;BME280;67762;52.476;6.046;2023-04-22T08:37:18;100695.31;;;15.99;80.31
43820;BME280;67762;52.476;6.046;2023-04-22T08:39:44;100691.53;;;15.87;78.14
43820;BME280;67762;52.476;6.046;2023-04-22T08:42:09;100697.16;;;16.05;80.45
43820;BME280;67762;52.476;6.046;2023-04-22T08:44:38;100702.81;;;16.23;80.67
43820;BME280;67762;52.476;6.046;2023-04-22T08:47:04;100703.47;;;16.32;78.94
43820;BME280;67762;52.476;6.046;2023-04-22T08:49:30;100700.81;;;16.58;79.74
43820;BME280;67762;52.476;6.046;2023-04-22T08:51:55;100686.72;;;17.02;81.43
43820;BME280;67762;52.476;6.046;2023-04-22T08:54:24;100676.69;;;17.42;80.97
43820;BME280;67762;52.476;6.046;2023-04-22T08:56:50;100669.97;;;17.71;81.75
43820;BME280;67762;52.476;6.046;2023-04-22T08:59:17;100666.00;;;17.73;81.20
43820;BME280;67762;52.476;6.046;2023-04-22T09:01:46;100656.31;;;17.97;81.00
43820;BME280;67762;52.476;6.046;2023-04-22T09:04:14;100644.16;;;18.44;81.79
43820;BME280;67762;52.476;6.046;2023-04-22T09:06:40;100651.22;;;18.76;81.47
43820;BME280;67762;52.476;6.046;2023-04-22T09:09:06;100639.53;;;18.82;80.75
43820;BME280;67762;52.476;6.046;2023-04-22T09:11:33;100637.06;;;18.99;80.04
43820;BME280;67762;52.476;6.046;2023-04-22T09:14:00;100637.13;;;19.10;79.50
43820;BME280;67762;52.476;6.046;2023-04-22T09:16:31;100623.84;;;18.91;77.00
43820;BME280;67762;52.476;6.046;2023-04-22T09:18:57;100623.78;;;18.73;75.20
43820;BME280;67762;52.476;6.046;2023-04-22T09:21:27;100614.00;;;18.47;75.86
43820;BME280;67762;52.476;6.046;2023-04-22T09:23:54;100626.97;;;18.38;75.45
43820;BME280;67762;52.476;6.046;2023-04-22T09:26:21;100627.75;;;18.52;76.46
43820;BME280;67762;52.476;6.046;2023-04-22T09:31:14;100636.28;;;18.74;74.13
43820;BME280;67762;52.476;6.046;2023-04-22T09:33:39;100631.78;;;18.86;75.17
43820;BME280;67762;52.476;6.046;2023-04-22T09:36:08;100632.88;;;19.21;75.50
43820;BME280;67762;52.476;6.046;2023-04-22T09:38:34;100634.25;;;19.48;74.57
43820;BME280;67762;52.476;6.046;2023-04-22T09:41:00;100637.03;;;19.42;70.97
43820;BME280;67762;52.476;6.046;2023-04-22T09:43:31;100634.69;;;19.45;71.80
43820;BME280;67762;52.476;6.046;2023-04-22T09:45:58;100628.72;;;19.55;70.34
43820;BME280;67762;52.476;6.046;2023-04-22T09:48:23;100638.31;;;19.57;70.11
43820;BME280;67762;52.476;6.046;2023-04-22T09:50:50;100641.53;;;19.96;72.02
43820;BME280;67762;52.476;6.046;2023-04-22T09:53:18;100634.25;;;20.08;69.96
43820;BME280;67762;52.476;6.046;2023-04-22T09:55:51;100633.34;;;20.14;70.87
43820;BME280;67762;52.476;6.046;2023-04-22T09:58:19;100623.47;;;20.19;71.55
43820;BME280;67762;52.476;6.046;2023-04-22T10:00:48;100608.31;;;20.30;71.84
43820;BME280;67762;52.476;6.046;2023-04-22T10:03:15;100611.03;;;20.30;68.70
43820;BME280;67762;52.476;6.046;2023-04-22T10:05:41;100612.47;;;20.44;69.63
43820;BME280;67762;52.476;6.046;2023-04-22T10:08:09;100602.59;;;20.61;70.85
43820;BME280;67762;52.476;6.046;2023-04-22T10:10:36;100598.09;;;20.55;66.59
43820;BME280;67762;52.476;6.046;2023-04-22T10:13:07;100591.41;;;20.46;65.98
43820;BME280;67762;52.476;6.046;2023-04-22T10:15:35;100593.16;;;20.40;64.75
43820;BME280;67762;52.476;6.046;2023-04-22T10:18:06;100590.25;;;20.12;61.92
43820;BME280;67762;52.476;6.046;2023-04-22T10:20:35;100589.94;;;20.43;65.20
43820;BME280;67762;52.476;6.046;2023-04-22T10:23:03;100574.66;;;20.72;63.75
43820;BME280;67762;52.476;6.046;2023-04-22T10:25:30;100577.25;;;20.56;60.74
43820;BME280;67762;52.476;6.046;2023-04-22T10:28:06;100570.50;;;20.47;59.68
43820;BME280;67762;52.476;6.046;2023-04-22T10:30:33;100577.56;;;20.24;58.63
43820;BME280;67762;52.476;6.046;2023-04-22T10:36:06;100575.69;;;20.25;60.27
43820;BME280;67762;52.476;6.046;2023-04-22T10:38:36;100577.47;;;20.42;60.74
43820;BME280;67762;52.476;6.046;2023-04-22T10:41:02;100564.75;;;20.66;62.30
43820;BME280;67762;52.476;6.046;2023-04-22T10:49:17;100562.97;;;21.46;64.68
43820;BME280;67762;52.476;6.046;2023-04-22T10:51:51;100566.16;;;21.72;64.12
43820;BME280;67762;52.476;6.046;2023-04-22T10:59:27;100553.97;;;21.74;58.20
43820;BME280;67762;52.476;6.046;2023-04-22T11:01:53;100558.41;;;21.92;60.48
43820;BME280;67762;52.476;6.046;2023-04-22T11:04:22;100552.44;;;21.50;55.82
43820;BME280;67762;52.476;6.046;2023-04-22T11:15:06;100558.88;;;21.61;58.45
43820;BME280;67762;52.476;6.046;2023-04-22T11:17:32;100553.22;;;21.62;58.13
43820;BME280;67762;52.476;6.046;2023-04-22T11:19:58;100551.00;;;21.31;55.07
43820;BME280;67762;52.476;6.046;2023-04-22T11:22:24;100552.31;;;21.17;56.38
43820;BME280;67762;52.476;6.046;2023-04-22T11:24:58;100542.66;;;21.21;56.94
43820;BME280;67762;52.476;6.046;2023-04-22T11:27:25;100553.47;;;21.32;56.87
43820;BME280;67762;52.476;6.046;2023-04-22T11:32:33;100547.25;;;21.20;54.00
43820;BME280;67762;52.476;6.046;2023-04-22T11:35:05;100547.16;;;20.92;53.64
43820;BME280;67762;52.476;6.046;2023-04-22T11:37:50;100549.66;;;20.70;54.22
43820;BME280;67762;52.476;6.046;2023-04-22T11:40:18;100544.06;;;21.00;55.69
43820;BME280;67762;52.476;6.046;2023-04-22T11:42:45;100541.63;;;20.98;53.69
43820;BME280;67762;52.476;6.046;2023-04-22T11:45:10;100549.84;;;21.04;54.71
43820;BME280;67762;52.476;6.046;2023-04-22T11:47:39;100531.59;;;20.99;53.31
43820;BME280;67762;52.476;6.046;2023-04-22T11:50:07;100535.34;;;21.21;53.74
43820;BME280;67762;52.476;6.046;2023-04-22T11:55:22;100533.06;;;21.58;53.57
43820;BME280;67762;52.476;6.046;2023-04-22T12:00:40;100538.13;;;21.38;52.87
43820;BME280;67762;52.476;6.046;2023-04-22T12:03:16;100538.00;;;21.33;52.84
43820;BME280;67762;52.476;6.046;2023-04-22T12:05:50;100531.03;;;21.37;52.30
43820;BME280;67762;52.476;6.046;2023-04-22T12:08:19;100531.09;;;21.14;52.13
43820;BME280;67762;52.476;6.046;2023-04-22T12:10:48;100534.06;;;21.12;52.50
43820;BME280;67762;52.476;6.046;2023-04-22T12:13:19;100532.28;;;21.06;52.46
43820;BME280;67762;52.476;6.046;2023-04-22T12:15:45;100533.78;;;21.02;53.20
43820;BME280;67762;52.476;6.046;2023-04-22T12:18:11;100527.13;;;21.33;53.42
43820;BME280;67762;52.476;6.046;2023-04-22T12:20:39;100518.28;;;21.37;52.43
43820;BME280;67762;52.476;6.046;2023-04-22T12:23:10;100526.56;;;21.31;52.89
43820;BME280;67762;52.476;6.046;2023-04-22T12:25:36;100511.53;;;21.12;52.29
43820;BME280;67762;52.476;6.046;2023-04-22T12:28:01;100521.81;;;20.86;52.49
43820;BME280;67762;52.476;6.046;2023-04-22T12:30:27;100519.47;;;20.55;52.07
43820;BME280;67762;52.476;6.046;2023-04-22T12:32:53;100513.47;;;20.30;52.27
43820;BME280;67762;52.476;6.046;2023-04-22T12:35:18;100508.63;;;20.09;52.75
43820;BME280;67762;52.476;6.046;2023-04-22T12:37:45;100510.81;;;19.89;53.24
43820;BME280;67762;52.476;6.046;2023-04-22T12:40:11;100499.69;;;19.67;54.53
43820;BME280;67762;52.476;6.046;2023-04-22T12:42:37;100504.84;;;19.57;54.70
43820;BME280;67762;52.476;6.046;2023-04-22T12:45:02;100514.59;;;19.46;55.25
43820;BME280;67762;52.476;6.046;2023-04-22T12:47:29;100512.72;;;19.28;55.65
43820;BME280;67762;52.476;6.046;2023-04-22T12:49:55;100506.44;;;18.98;55.92
43820;BME280;67762;52.476;6.046;2023-04-22T12:52:22;100513.13;;;18.78;56.50
43820;BME280;67762;52.476;6.046;2023-04-22T12:54:48;100532.25;;;18.58;57.33
43820;BME280;67762;52.476;6.046;2023-04-22T12:57:14;100517.72;;;18.34;58.10
43820;BME280;67762;52.476;6.046;2023-04-22T12:59:40;100520.44;;;18.09;59.18
43820;BME280;67762;52.476;6.046;2023-04-22T13:02:05;100516.66;;;17.86;60.36
43820;BME280;67762;52.476;6.046;2023-04-22T13:04:31;100516.19;;;17.64;61.38
43820;BME280;67762;52.476;6.046;2023-04-22T13:06:57;100519.97;;;17.50;63.23
43820;BME280;67762;52.476;6.046;2023-04-22T13:09:23;100534.16;;;17.39;64.40
43820;BME280;67762;52.476;6.046;2023-04-22T13:11:51;100539.63;;;17.26;65.75
43820;BME280;67762;52.476;6.046;2023-04-22T13:14:17;100544.25;;;17.12;66.64
43820;BME280;67762;52.476;6.046;2023-04-22T13:16:43;100531.19;;;17.03;68.88
43820;BME280;67762;52.476;6.046;2023-04-22T13:19:09;100533.28;;;17.07;68.83
43820;BME280;67762;52.476;6.046;2023-04-22T13:21:35;100532.84;;;17.10;69.61
43820;BME280;67762;52.476;6.046;2023-04-22T13:24:00;100539.88;;;17.11;70.09
43820;BME280;67762;52.476;6.046;2023-04-22T13:26:26;100538.41;;;17.15;70.35
43820;BME280;67762;52.476;6.046;2023-04-22T13:28:52;100541.94;;;17.16;71.06